Time;durP1;ratioP1;P1;durP2;ratioP2;P2;SDS_P1;SDS_P2;PMS_P1;PMS_P2;Temp;Humidity;BMP_temperature;BMP_pressure;BME280_temperature;BME280_humidity;BME280_pressure;Samples;Min_cycle;Max_cycle;Signal;HPM_P1;HPM_P2
2023/04/02 00:05:48;;;;;;;0.10;0.10;;;;;;;9.77;71.13;101332.22;5071496;28;20414;-82
2023/04/02 00:08:39;;;;;;;0.43;0.43;;;;;;;9.72;70.78;101328.75;5074612;28;20642;-79
2023/04/02 00:11:06;;;;;;;1.98;0.77;;;;;;;9.71;71.04;101343.72;5077475;28;20496;-81
2023/04/02 00:13:39;;;;;;;0.25;0.25;;;;;;;9.71;70.74;101342.84;5076838;28;20565;-82
2023/04/02 00:16:11;;;;;;;0.20;0.20;;;;;;;9.70;71.17;101347.25;5076771;28;20024;-82
2023/04/02 00:18:45;;;;;;;0.82;0.82;;;;;;;9.75;71.37;101347.22;5072451;28;20028;-80
2023/04/02 00:24:14;;;;;;;0.10;0.10;;;;;;;9.70;70.84;101354.31;5119471;27;20376;-79
2023/04/02 00:26:45;;;;;;;0.20;0.20;;;;;;;9.69;70.85;101364.03;5092542;28;20071;-82
2023/04/02 00:29:13;;;;;;;0.10;0.10;;;;;;;9.67;70.88;101372.84;5084130;28;20545;-80
2023/04/02 00:31:45;;;;;;;0.10;0.10;;;;;;;9.67;71.08;101373.75;5077223;28;20528;-80
2023/04/02 00:34:38;;;;;;;0.20;0.20;;;;;;;9.66;70.63;101377.28;5077456;28;20037;-79
2023/04/02 00:37:05;;;;;;;0.20;0.20;;;;;;;9.57;70.65;101380.00;5076932;28;20080;-81
2023/04/02 00:39:38;;;;;;;0.20;0.20;;;;;;;9.62;70.80;101387.88;5075206;28;20033;-81
2023/04/02 00:42:05;;;;;;;0.82;0.82;;;;;;;9.54;70.65;101388.84;5076826;28;20097;-82
2023/04/02 00:44:36;;;;;;;0.20;0.20;;;;;;;9.57;70.51;101395.88;5077943;28;20086;-81
2023/04/02 00:47:19;;;;;;;0.77;0.77;;;;;;;9.55;70.53;101397.66;5075032;28;20082;-81
2023/04/02 00:49:47;;;;;;;0.30;0.30;;;;;;;9.54;70.29;101409.13;5084096;28;20088;-78
2023/04/02 00:52:19;;;;;;;0.50;0.50;;;;;;;9.50;70.45;101402.09;5084903;28;20036;-81
2023/04/02 00:55:06;;;;;;;0.20;0.20;;;;;;;9.52;70.68;101409.13;5079461;28;20029;-81
2023/04/02 00:57:33;;;;;;;0.17;0.17;;;;;;;9.49;70.42;101411.78;5074270;28;20033;-81
2023/04/02 01:00:16;;;;;;;0.10;0.10;;;;;;;9.50;70.31;101428.56;5077560;28;20090;-80
2023/04/02 01:03:03;;;;;;;0.10;0.10;;;;;;;9.50;70.70;101423.25;5074997;28;20500;-81
2023/04/02 01:05:34;;;;;;;4.95;0.75;;;;;;;9.52;70.45;101426.75;5074200;28;20041;-81
2023/04/02 01:08:14;;;;;;;0.20;0.20;;;;;;;9.52;70.21;101437.34;5076053;28;20139;-80
2023/04/02 01:16:35;;;;;;;0.20;0.20;;;;;;;9.39;70.05;101448.00;5175360;27;20175;-80
2023/04/02 01:19:42;;;;;;;0.57;0.57;;;;;;;9.32;69.47;101451.56;5154001;27;20028;-77
2023/04/02 01:24:47;;;;;;;0.17;0.17;;;;;;;9.32;69.69;101450.66;5126311;27;20398;-79
2023/04/02 01:27:27;;;;;;;0.28;0.28;;;;;;;9.30;69.58;101463.91;5128452;28;20058;-81
2023/04/02 01:29:57;;;;;;;0.30;0.30;;;;;;;9.28;69.82;101455.09;5116268;28;20019;-81
2023/04/02 01:32:26;;;;;;;0.57;0.57;;;;;;;9.21;69.91;101463.97;5110371;28;20382;-82
2023/04/02 01:34:54;;;;;;;0.20;0.20;;;;;;;9.06;68.95;101472.84;5117262;28;20119;-81
2023/04/02 01:40:26;;;;;;;0.20;0.20;;;;;;;9.07;69.00;101480.75;5084409;28;20378;-81
2023/04/02 01:43:22;;;;;;;0.45;0.45;;;;;;;9.14;69.32;101493.97;5064383;28;20033;-81
2023/04/02 01:45:49;;;;;;;0.30;0.30;;;;;;;9.04;70.02;101493.97;5058661;28;20029;-79
2023/04/02 01:48:20;;;;;;;0.38;0.38;;;;;;;9.05;69.50;101501.03;5058708;28;20028;-79
2023/04/02 01:50:50;;;;;;;0.43;0.43;;;;;;;9.06;69.95;101504.56;5054005;28;20025;-80
2023/04/02 01:53:19;;;;;;;0.20;0.20;;;;;;;9.10;70.13;101508.03;5042604;28;20187;-81
2023/04/02 01:58:30;;;;;;;0.45;0.45;;;;;;;9.06;69.51;101515.13;5110708;27;20393;-78
2023/04/02 02:03:42;;;;;;;0.20;0.20;;;;;;;9.03;69.69;101518.66;5097982;27;20393;-80
2023/04/02 02:06:12;;;;;;;0.20;0.20;;;;;;;9.01;69.82;101533.63;5093605;28;20059;-80
2023/04/02 02:11:27;;;;;;;0.20;0.20;;;;;;;9.00;69.46;101538.94;5077905;28;20386;-81
2023/04/02 02:13:57;;;;;;;1.10;1.10;;;;;;;8.97;69.26;101539.81;5078286;28;20029;-79
2023/04/02 02:16:26;;;;;;;0.25;0.25;;;;;;;8.99;69.75;101539.81;5075851;28;20115;-79
2023/04/02 02:18:56;;;;;;;0.10;0.10;;;;;;;9.00;69.54;101534.53;5066002;28;20040;-80
2023/04/02 02:21:46;;;;;;;0.80;0.77;;;;;;;9.04;69.94;101551.25;5058002;28;20041;-80
2023/04/02 02:24:22;;;;;;;0.10;0.10;;;;;;;8.98;69.52;101544.19;5053529;28;20052;-80
2023/04/02 02:26:55;;;;;;;0.40;0.40;;;;;;;8.96;69.44;101559.22;5056223;28;20029;-80
2023/04/02 02:29:25;;;;;;;0.20;0.20;;;;;;;8.95;69.54;101568.00;5047107;28;20026;-79
2023/04/02 02:31:54;;;;;;;0.10;0.10;;;;;;;8.94;69.32;101560.97;5057187;28;20124;-79
2023/04/02 02:34:23;;;;;;;0.20;0.20;;;;;;;8.93;69.44;101567.13;5056572;28;20411;-80
2023/04/02 02:37:01;;;;;;;0.20;0.20;;;;;;;8.93;69.43;101580.34;5056422;28;20497;-79
2023/04/02 02:39:41;;;;;;;0.10;0.10;;;;;;;8.98;69.61;101581.22;5056257;28;20079;-79
2023/04/02 02:42:21;;;;;;;0.20;0.20;;;;;;;8.95;69.11;101582.97;5055945;28;20028;-80
2023/04/02 02:44:50;;;;;;;0.10;0.10;;;;;;;8.97;69.41;101587.41;5050418;28;20048;-79
2023/04/02 02:47:22;;;;;;;0.10;0.10;;;;;;;9.02;69.71;101593.56;5055700;28;20037;-80
2023/04/02 02:49:53;;;;;;;0.70;0.70;;;;;;;9.04;69.67;101597.06;5054957;28;20029;-81
2023/04/02 02:52:25;;;;;;;0.22;0.22;;;;;;;8.92;68.86;101599.72;5054186;28;20033;-81
2023/04/02 02:54:58;;;;;;;0.20;0.20;;;;;;;8.97;68.86;101608.56;5053372;28;20040;-79
2023/04/02 02:57:29;;;;;;;0.20;0.20;;;;;;;9.02;69.39;101617.34;5056162;28;20033;-81
2023/04/02 02:59:59;;;;;;;0.28;0.28;;;;;;;9.04;69.66;101618.22;5049652;28;20418;-79
2023/04/02 03:02:27;;;;;;;0.20;0.20;;;;;;;9.00;69.45;101628.81;5054278;28;20040;-81
2023/04/02 03:04:55;;;;;;;0.13;0.13;;;;;;;8.98;69.10;101628.78;5057869;28;20029;-80
2023/04/02 03:07:26;;;;;;;0.50;0.50;;;;;;;8.97;69.13;101632.34;5057782;28;20096;-81
2023/04/02 03:20:46;;;;;;;0.17;0.17;;;;;;;8.69;68.52;101671.94;5117465;27;20128;-80
2023/04/02 03:23:35;;;;;;;0.20;0.20;;;;;;;8.70;68.93;101671.06;5115590;28;20063;-80
2023/04/02 03:26:09;;;;;;;0.30;0.30;;;;;;;8.65;68.92;101675.47;5114188;28;20030;-81
2023/04/02 03:28:40;;;;;;;1.75;1.65;;;;;;;8.61;68.82;101686.03;5116714;28;20035;-79
2023/04/02 03:31:15;;;;;;;0.10;0.10;;;;;;;8.57;68.76;101688.69;5107175;28;20028;-79
2023/04/02 03:33:51;;;;;;;0.20;0.20;;;;;;;8.51;68.48;101687.75;5107362;28;20043;-81
2023/04/02 03:44:51;;;;;;;0.10;0.10;;;;;;;8.47;69.24;101704.50;5078875;28;20398;-80
2023/04/02 03:50:05;;;;;;;0.10;0.10;;;;;;;8.40;69.19;101715.00;5115234;27;20125;-81
2023/04/02 03:52:35;;;;;;;0.10;0.10;;;;;;;8.41;68.69;101726.44;5100659;28;20040;-79
2023/04/02 03:55:09;;;;;;;0.10;0.10;;;;;;;8.36;68.49;101729.09;5100591;28;20032;-81
2023/04/02 03:57:41;;;;;;;0.10;0.10;;;;;;;8.41;69.45;101740.53;5099536;28;20047;-81
2023/04/02 04:03:01;;;;;;;0.13;0.13;;;;;;;8.43;68.62;101759.03;5128650;27;20143;-81
2023/04/02 04:08:16;;;;;;;0.10;0.10;;;;;;;8.41;68.34;101766.06;5122353;27;20129;-80
2023/04/02 04:10:43;;;;;;;0.10;0.10;;;;;;;8.45;69.13;101777.50;5100866;28;20036;-81
2023/04/02 04:13:15;;;;;;;0.10;0.10;;;;;;;8.48;69.16;101777.56;5104573;28;20055;-81
2023/04/02 04:15:53;;;;;;;0.20;0.20;;;;;;;8.50;68.99;101786.38;5089583;28;20025;-79
2023/04/02 04:19:02;;;;;;;0.10;0.10;;;;;;;8.48;68.19;101790.78;5107363;28;20044;-78
2023/04/02 04:21:29;;;;;;;0.10;0.10;;;;;;;8.42;68.72;101789.84;5105005;28;20088;-81
2023/04/02 04:24:02;;;;;;;0.52;0.52;;;;;;;8.40;68.85;101791.59;5111230;28;20028;-82
2023/04/02 04:26:55;;;;;;;0.10;0.10;;;;;;;8.41;68.14;101792.47;5099273;28;20029;-81
2023/04/02 04:29:53;;;;;;;0.25;0.25;;;;;;;8.46;68.19;101800.41;5096304;28;20093;-79
2023/04/02 04:32:32;;;;;;;6.28;0.75;;;;;;;8.41;68.81;101814.50;5098260;28;20031;-80
2023/04/02 04:35:06;;;;;;;0.20;0.20;;;;;;;8.42;68.37;101818.00;5108420;28;20045;-81
2023/04/02 04:37:37;;;;;;;0.10;0.10;;;;;;;8.38;68.27;101825.03;5102123;28;20021;-81
2023/04/02 04:42:46;;;;;;;0.13;0.13;;;;;;;8.29;67.81;101830.28;5089414;28;20382;-80
2023/04/02 04:45:40;;;;;;;0.10;0.10;;;;;;;8.31;68.12;101839.09;5082025;28;20048;-79
2023/04/02 04:51:00;;;;;;;0.10;0.10;;;;;;;8.20;67.99;101848.69;5079367;28;20398;-81
2023/04/02 04:53:28;;;;;;;0.20;0.20;;;;;;;8.09;67.25;101844.22;5067517;28;20148;-81
2023/04/02 04:56:01;;;;;;;0.20;0.20;;;;;;;8.04;67.99;101850.38;5061871;28;20104;-81
2023/04/02 05:01:50;;;;;;;0.20;0.20;;;;;;;8.09;67.89;101867.13;5124718;27;20411;-80
2023/04/02 05:09:43;;;;;;;0.20;0.20;;;;;;;7.97;67.63;101875.81;5063714;28;20400;-77
2023/04/02 05:12:48;;;;;;;0.45;0.45;;;;;;;8.05;68.04;101883.78;5061785;28;20033;-80
2023/04/02 05:18:19;;;;;;;0.20;0.20;;;;;;;8.02;68.29;101892.56;5120341;27;20383;-79
2023/04/02 05:23:52;;;;;;;3.83;0.80;;;;;;;7.93;68.17;101900.41;5079491;28;20760;-79
2023/04/02 05:26:28;;;;;;;0.17;0.17;;;;;;;7.88;67.01;101913.56;5063316;28;20097;-80
2023/04/02 05:29:05;;;;;;;0.35;0.35;;;;;;;7.91;67.53;101912.72;5067736;28;20016;-79
2023/04/02 05:31:58;;;;;;;0.17;0.17;;;;;;;7.94;67.48;101931.22;5060199;28;20067;-78
2023/04/02 05:34:30;;;;;;;0.40;0.40;;;;;;;7.82;66.99;101933.75;5061257;28;20025;-78
2023/04/02 05:36:57;;;;;;;0.30;0.30;;;;;;;7.80;66.93;101940.75;5060745;28;20394;-80
2023/04/02 05:39:25;;;;;;;0.20;0.20;;;;;;;7.78;67.53;101946.03;5062472;28;20029;-78
2023/04/02 05:42:17;;;;;;;0.30;0.30;;;;;;;7.90;67.46;101953.16;5067290;28;20258;-80
2023/04/02 05:45:09;;;;;;;0.20;0.20;;;;;;;7.82;67.40;101965.41;5056832;28;20108;-78
2023/04/02 05:47:41;;;;;;;0.40;0.40;;;;;;;7.82;67.74;101965.41;5066243;28;20045;-80
2023/04/02 05:52:50;;;;;;;0.13;0.13;;;;;;;7.74;67.40;101979.41;5133795;27;20117;-79
2023/04/02 05:57:58;;;;;;;0.10;0.10;;;;;;;7.63;67.53;101999.53;5115269;27;1179082;-80
2023/04/02 06:00:46;;;;;;;0.47;0.47;;;;;;;7.65;67.11;102004.81;5122693;28;20907;-80
2023/04/02 06:03:26;;;;;;;0.20;0.20;;;;;;;7.55;66.57;102009.09;5130406;28;20043;-77
2023/04/02 06:05:56;;;;;;;0.20;0.20;;;;;;;7.54;67.30;102015.22;5134879;28;20039;-78
2023/04/02 06:08:31;;;;;;;0.40;0.40;;;;;;;7.53;66.89;102010.84;5121856;27;20043;-81
2023/04/02 06:11:06;;;;;;;0.10;0.10;;;;;;;7.51;66.19;102024.00;5129627;28;20032;-80
2023/04/02 06:13:32;;;;;;;0.20;0.20;;;;;;;7.45;65.61;102030.09;5133905;28;20031;-79
2023/04/02 06:15:59;;;;;;;0.20;0.20;;;;;;;7.49;66.31;102046.84;5135810;28;20030;-79
2023/04/02 06:18:31;;;;;;;0.20;0.20;;;;;;;7.45;66.07;102038.00;5134951;27;20020;-80
2023/04/02 06:20:57;;;;;;;0.20;0.20;;;;;;;7.40;64.88;102047.63;5130887;28;20396;-80
2023/04/02 06:26:40;;;;;;;0.13;0.13;;;;;;;7.41;65.67;102069.59;5142464;27;1170516;-82
2023/04/02 06:29:26;;;;;;;0.28;0.28;;;;;;;7.31;64.50;102081.75;5154599;27;20304;-82
2023/04/02 06:32:03;;;;;;;0.10;0.10;;;;;;;7.32;65.28;102082.66;5148165;27;20046;-82
2023/04/02 06:34:30;;;;;;;0.10;0.10;;;;;;;7.33;65.68;102087.94;5146194;27;20507;-77
2023/04/02 06:37:04;;;;;;;0.20;0.20;;;;;;;7.35;66.02;102096.78;5149678;27;20031;-80
2023/04/02 06:39:30;;;;;;;0.20;0.20;;;;;;;7.31;64.76;102105.47;5149527;27;20035;-80
2023/04/02 06:42:03;;;;;;;0.10;0.10;;;;;;;7.35;65.44;102094.13;5149384;27;20023;-80
2023/04/02 06:44:35;;;;;;;0.10;0.10;;;;;;;7.34;64.70;102118.72;5151254;27;20026;-78
2023/04/02 06:47:11;;;;;;;0.20;0.20;;;;;;;7.38;65.56;102117.03;5143179;27;20023;-78
2023/04/02 06:49:47;;;;;;;0.20;0.20;;;;;;;7.31;64.95;102116.03;5153391;27;20062;-79
2023/04/02 06:52:22;;;;;;;0.95;0.95;;;;;;;7.26;64.82;102123.00;5150080;27;20023;-78
2023/04/02 06:54:49;;;;;;;0.20;0.20;;;;;;;7.21;65.01;102129.94;5145035;27;20505;-80
2023/04/02 06:57:15;;;;;;;0.20;0.20;;;;;;;7.22;64.72;102137.00;5158102;27;20027;-80
2023/04/02 06:59:41;;;;;;;0.20;0.20;;;;;;;7.26;64.46;102138.81;5146328;27;20023;-77
2023/04/02 07:02:32;;;;;;;0.20;0.20;;;;;;;7.29;63.33;102144.16;5138807;27;20039;-79
2023/04/02 07:05:04;;;;;;;0.10;0.10;;;;;;;7.29;64.55;102142.38;5139527;27;20027;-79
2023/04/02 07:07:30;;;;;;;0.20;0.20;;;;;;;7.31;65.17;102152.06;5133629;27;20054;-80
2023/04/02 07:09:56;;;;;;;0.10;0.10;;;;;;;7.25;63.27;102158.13;5145011;27;20026;-78
2023/04/02 07:12:24;;;;;;;0.10;0.10;;;;;;;7.22;64.02;102160.72;5152887;27;20034;-78
2023/04/02 07:14:51;;;;;;;0.20;0.20;;;;;;;7.16;63.70;102168.53;5139874;27;20081;-80
2023/04/02 07:17:18;;;;;;;0.20;0.20;;;;;;;7.21;64.02;102166.84;5142446;27;20475;-80
2023/04/02 07:19:48;;;;;;;0.20;0.20;;;;;;;7.26;64.94;102181.00;5145014;27;20031;-79
2023/04/02 07:22:15;;;;;;;0.20;0.20;;;;;;;7.26;63.62;102186.25;5139963;27;20035;-79
2023/04/02 07:24:41;;;;;;;0.15;0.15;;;;;;;7.38;64.52;102185.56;5141077;27;20038;-79
2023/04/02 07:27:09;;;;;;;0.43;0.43;;;;;;;7.47;63.26;102200.66;5148447;27;20038;-78
2023/04/02 07:29:41;;;;;;;1.40;1.30;;;;;;;7.50;62.67;102205.94;5148476;27;20124;-78
2023/04/02 07:32:08;;;;;;;0.17;0.17;;;;;;;7.51;62.30;102207.72;5136172;27;20034;-79
2023/04/02 07:34:35;;;;;;;4.05;2.05;;;;;;;7.61;63.52;102201.72;5139998;27;20026;-79
2023/04/02 07:37:01;;;;;;;0.63;0.63;;;;;;;7.70;64.19;102214.16;5129757;27;20045;-79
2023/04/02 07:39:27;;;;;;;0.10;0.10;;;;;;;7.66;63.80;102215.84;5124046;27;20038;-80
2023/04/02 07:41:56;;;;;;;0.20;0.20;;;;;;;7.61;61.86;102217.53;5130426;27;20039;-80
2023/04/02 07:44:23;;;;;;;0.20;0.20;;;;;;;7.60;62.69;102227.22;5131123;27;20498;-80
2023/04/02 07:46:49;;;;;;;0.20;0.20;;;;;;;7.67;62.88;102228.19;5139436;27;20101;-80
2023/04/02 07:49:15;;;;;;;0.40;0.40;;;;;;;7.69;63.02;102226.47;5135532;27;20047;-79
2023/04/02 07:51:41;;;;;;;0.20;0.20;;;;;;;7.67;63.21;102236.09;5139312;27;20023;-80
2023/04/02 07:54:09;;;;;;;0.10;0.10;;;;;;;7.71;62.94;102237.94;5136330;27;20031;-80
2023/04/02 07:56:36;;;;;;;1.00;0.98;;;;;;;7.75;63.06;102239.75;5146206;27;20035;-78
2023/04/02 07:59:03;;;;;;;0.20;0.20;;;;;;;7.69;62.89;102244.03;5140048;27;20031;-79
2023/04/02 08:01:34;;;;;;;0.20;0.20;;;;;;;7.72;62.01;102257.28;5138605;27;20023;-80
2023/04/02 08:04:02;;;;;;;0.20;0.20;;;;;;;7.65;62.51;102264.22;5131830;27;20027;-79
2023/04/02 08:06:29;;;;;;;0.22;0.22;;;;;;;7.69;63.11;102263.41;5126025;27;20027;-80
2023/04/02 08:08:56;;;;;;;0.13;0.13;;;;;;;7.74;62.23;102266.97;5136243;27;20050;-80
2023/04/02 08:11:22;;;;;;;0.20;0.20;;;;;;;7.84;63.71;102265.38;5138199;27;20515;-80
2023/04/02 08:13:50;;;;;;;0.20;0.20;;;;;;;7.90;62.96;102281.28;5141552;27;20035;-80
2023/04/02 08:16:16;;;;;;;0.10;0.10;;;;;;;7.91;62.07;102271.59;5140959;27;20480;-80
2023/04/02 08:18:42;;;;;;;0.20;0.20;;;;;;;7.89;61.94;102281.28;5122091;27;20046;-80
2023/04/02 08:21:09;;;;;;;0.10;0.10;;;;;;;7.96;62.63;102284.88;5135946;27;20052;-80
2023/04/02 08:23:37;;;;;;;0.20;0.20;;;;;;;7.94;62.24;102291.00;5137808;27;20057;-80
2023/04/02 08:26:03;;;;;;;0.20;0.20;;;;;;;7.90;61.18;102290.94;5135220;27;20042;-80
2023/04/02 08:28:30;;;;;;;0.20;0.20;;;;;;;7.96;61.46;102293.66;5139940;27;20023;-80
2023/04/02 08:30:56;;;;;;;0.17;0.17;;;;;;;7.95;61.50;102305.13;5138078;27;20441;-80
2023/04/02 08:33:22;;;;;;;0.20;0.20;;;;;;;7.95;61.26;102307.75;5137316;27;20062;-80
2023/04/02 08:35:49;;;;;;;0.10;0.10;;;;;;;7.92;61.77;102315.63;5140235;27;20075;-80
2023/04/02 08:38:17;;;;;;;0.20;0.20;;;;;;;7.84;61.24;102317.25;5139614;27;20030;-80
2023/04/02 08:40:47;;;;;;;0.10;0.10;;;;;;;7.92;61.74;102323.53;5137107;27;20023;-80
2023/04/02 08:48:51;;;;;;;0.50;0.50;;;;;;;7.92;61.34;102348.19;5068538;28;20423;-80
2023/04/02 08:51:28;;;;;;;0.10;0.10;;;;;;;7.88;60.12;102337.56;5055093;28;20036;-80
2023/04/02 08:54:01;;;;;;;0.75;0.75;;;;;;;7.82;59.85;102348.00;5055238;28;20022;-81
2023/04/02 08:56:39;;;;;;;0.57;0.57;;;;;;;7.92;61.04;102360.47;5054331;28;20264;-80
2023/04/02 08:59:30;;;;;;;0.60;0.60;;;;;;;8.02;61.08;102358.88;5053595;28;20071;-80
2023/04/02 09:05:02;;;;;;;0.20;0.20;;;;;;;8.12;61.08;102365.19;5090921;27;20411;-81
2023/04/02 09:07:28;;;;;;;0.30;0.30;;;;;;;8.09;59.26;102366.91;5074808;28;20322;-81
2023/04/02 09:09:55;;;;;;;0.10;0.10;;;;;;;8.22;59.77;102370.63;5075606;28;20084;-81
2023/04/02 09:12:28;;;;;;;0.25;0.25;;;;;;;8.28;60.22;102359.25;5075657;28;20044;-79
2023/04/02 09:17:34;;;;;;;0.20;0.20;;;;;;;8.28;59.88;102368.94;5074589;28;20399;-81
2023/04/02 09:20:24;;;;;;;0.20;0.20;;;;;;;8.38;59.24;102379.63;5075155;28;20537;-80
2023/04/02 09:22:53;;;;;;;0.10;0.10;;;;;;;8.32;59.63;102379.53;5061008;28;20147;-81
2023/04/02 09:25:24;;;;;;;0.10;0.10;;;;;;;8.52;59.97;102387.78;5061615;28;20529;-80
2023/04/02 09:27:54;;;;;;;0.30;0.30;;;;;;;8.61;59.80;102399.34;5062580;28;20025;-81
2023/04/02 09:33:06;;;;;;;0.20;0.20;;;;;;;8.58;57.92;102413.41;5115905;27;20391;-81
2023/04/02 09:35:34;;;;;;;0.20;0.20;;;;;;;8.71;59.40;102415.34;5115144;28;20126;-79
2023/04/02 09:43:37;;;;;;;0.10;0.10;;;;;;;9.04;58.38;102419.25;5075426;28;20382;-79
2023/04/02 09:48:48;;;;;;;0.15;0.15;;;;;;;9.13;57.26;102428.16;5011898;27;20402;-80
2023/04/02 09:54:15;;;;;;;0.20;0.20;;;;;;;9.24;56.73;102434.47;5064858;27;20768;-81
2023/04/02 09:57:00;;;;;;;0.30;0.30;;;;;;;9.16;57.70;102433.47;5063410;27;20036;-81
2023/04/02 09:59:26;;;;;;;0.10;0.10;;;;;;;8.92;57.44;102431.44;5057082;27;20054;-81
2023/04/02 10:07:06;;;;;;;0.10;0.10;;;;;;;9.18;56.62;102437.03;5095173;27;20389;-79
2023/04/02 10:09:35;;;;;;;0.20;0.20;;;;;;;9.43;57.19;102432.03;5077532;28;20111;-80
2023/04/02 10:12:06;;;;;;;0.20;0.20;;;;;;;9.56;56.53;102436.56;5074700;28;20051;-81
2023/04/02 10:14:38;;;;;;;0.20;0.20;;;;;;;9.84;55.87;102431.53;5075422;28;20033;-80
2023/04/02 10:17:11;;;;;;;;;;;;;;;10.18;55.41;102445.03;5074729;28;20071;-81
2023/04/02 10:19:41;;;;;;;0.20;0.20;;;;;;;10.13;53.42;102454.69;5074522;28;20373;-81
2023/04/02 10:22:22;;;;;;;0.20;0.20;;;;;;;10.29;54.44;102456.59;5074777;28;20032;-81
2023/04/02 10:24:50;;;;;;;0.20;0.20;;;;;;;10.43;55.84;102456.72;5075017;28;20035;-80
2023/04/02 10:30:23;;;;;;;0.10;0.10;;;;;;;10.73;54.08;102457.78;5115945;27;20392;-81
2023/04/02 10:36:03;;;;;;;0.10;0.10;;;;;;;10.65;52.55;102463.06;5087613;27;20471;-80
2023/04/02 10:38:41;;;;;;;0.20;0.20;;;;;;;10.78;54.23;102465.75;5069174;28;20501;-81
2023/04/02 10:41:35;;;;;;;0.17;0.17;;;;;;;10.91;54.65;102470.25;5068763;28;20029;-80
2023/04/02 10:49:41;;;;;;;0.10;0.10;;;;;;;11.23;51.71;102474.81;5111937;27;20388;-80
2023/04/02 10:54:49;;;;;;;0.10;0.10;;;;;;;11.17;51.76;102483.59;5143962;27;20403;-80
2023/04/02 10:57:37;;;;;;;0.20;0.20;;;;;;;11.30;52.27;102479.25;5139897;27;20045;-81
2023/04/02 11:05:54;;;;;;;0.10;0.10;;;;;;;11.52;50.17;102489.91;5073046;28;20143;-81
2023/04/02 11:08:42;;;;;;;0.17;0.17;;;;;;;11.53;49.93;102491.69;5068130;28;20551;-81
2023/04/02 11:14:14;;;;;;;0.20;0.20;;;;;;;11.46;49.60;102497.84;5094718;28;20052;-80
2023/04/02 11:16:41;;;;;;;0.10;0.10;;;;;;;11.51;50.31;102508.50;5081012;28;20239;-81
2023/04/02 11:22:00;;;;;;;0.10;0.10;;;;;;;11.85;50.82;102509.47;5128429;27;20393;-80
2023/04/02 11:32:41;;;;;;;0.68;0.68;;;;;;;11.98;50.15;102516.56;5114623;27;20407;-81
2023/04/02 11:35:34;;;;;;;0.88;0.82;;;;;;;11.96;47.28;102518.38;5114623;28;20034;-81
2023/04/02 11:38:21;;;;;;;0.20;0.20;;;;;;;12.01;48.81;102522.78;5091063;28;20484;-81
2023/04/02 11:41:02;;;;;;;0.10;0.10;;;;;;;12.08;48.60;102516.59;5101339;28;20032;-81
2023/04/02 11:46:38;;;;;;;1.02;0.60;;;;;;;12.22;49.90;102525.44;5066094;28;20411;-81
2023/04/02 11:49:32;;;;;;;0.20;0.20;;;;;;;12.24;46.86;102518.38;5066287;28;20448;-81
2023/04/02 11:51:58;;;;;;;0.10;0.10;;;;;;;12.25;48.25;102516.59;5075656;28;20082;-81
2023/04/02 11:54:29;;;;;;;0.20;0.20;;;;;;;12.27;47.50;102521.03;5074508;28;20021;-81
2023/04/02 11:57:07;;;;;;;0.20;0.20;;;;;;;12.36;47.58;102506.88;5072423;28;20043;-80
2023/04/02 11:59:50;;;;;;;0.10;0.10;;;;;;;12.50;48.00;102517.47;5082934;28;20123;-82
2023/04/02 12:02:28;;;;;;;0.20;0.20;;;;;;;12.57;46.17;102521.91;5087538;28;20055;-81
2023/04/02 12:05:20;;;;;;;0.30;0.30;;;;;;;12.71;47.07;102523.63;5074967;28;20075;-82
2023/04/02 12:12:59;;;;;;;0.30;0.30;;;;;;;12.93;47.00;102536.00;5073924;28;20142;-81
2023/04/02 12:18:18;;;;;;;0.10;0.10;;;;;;;13.10;47.36;102543.94;5114459;27;20397;-82
2023/04/02 12:20:49;;;;;;;0.10;0.10;;;;;;;13.25;47.12;102542.97;5109324;28;20028;-83
2023/04/02 12:23:22;;;;;;;0.10;0.10;;;;;;;13.30;47.13;102550.09;5107523;28;20020;-81
2023/04/02 12:25:57;;;;;;;0.13;0.13;;;;;;;13.33;46.05;102544.72;5100328;28;20020;-81
2023/04/02 12:28:27;;;;;;;0.20;0.20;;;;;;;13.34;46.87;102554.50;5097210;28;20504;-81
2023/04/02 12:31:03;;;;;;;0.10;0.10;;;;;;;13.43;45.81;102546.50;5114130;28;20015;-82
2023/04/02 12:33:36;;;;;;;0.10;0.10;;;;;;;13.45;45.98;102560.69;5115578;28;20485;-80
2023/04/02 12:36:27;;;;;;;0.30;0.30;;;;;;;13.42;44.91;102560.69;5115102;27;20028;-82
2023/04/02 12:39:00;;;;;;;0.20;0.20;;;;;;;13.49;43.60;102562.44;5113989;27;20032;-83
2023/04/02 12:41:30;;;;;;;0.13;0.13;;;;;;;13.46;43.99;102564.22;5104582;28;20052;-82
2023/04/02 12:46:37;;;;;;;0.40;0.40;;;;;;;13.64;45.33;102555.28;5095737;27;20898;-82
2023/04/02 12:49:28;;;;;;;0.10;0.10;;;;;;;13.72;44.11;102549.00;5094727;28;20040;-82
2023/04/02 12:51:55;;;;;;;0.90;0.90;;;;;;;13.79;43.77;102555.19;5095245;28;20111;-82
2023/04/02 12:54:22;;;;;;;0.13;0.13;;;;;;;13.87;44.54;102550.69;5095135;28;20040;-82
2023/04/02 12:56:49;;;;;;;0.17;0.17;;;;;;;13.83;44.46;102556.94;5081678;28;20434;-82
2023/04/02 12:59:35;;;;;;;0.10;0.10;;;;;;;13.99;44.58;102556.84;5077338;28;20063;-82
2023/04/02 13:02:16;;;;;;;0.10;0.10;;;;;;;13.91;43.71;102555.09;5085019;28;20074;-82
2023/04/02 13:04:51;;;;;;;0.13;0.13;;;;;;;14.11;44.32;102572.75;5095003;28;20393;-81
2023/04/02 13:07:24;;;;;;;0.15;0.15;;;;;;;14.14;42.24;102551.38;5068167;28;20036;-82
2023/04/02 13:09:53;;;;;;;0.10;0.10;;;;;;;14.20;43.36;102554.00;5093307;28;20028;-82
2023/04/02 13:12:25;;;;;;;0.30;0.30;;;;;;;14.33;43.42;102552.16;5079890;28;20024;-82
2023/04/02 13:14:55;;;;;;;0.20;0.20;;;;;;;14.40;43.18;102558.28;5087217;28;20082;-82
2023/04/02 13:26:29;;;;;;;0.20;0.20;;;;;;;14.53;43.07;102575.97;5114488;27;20359;-81
2023/04/02 13:28:58;;;;;;;0.10;0.10;;;;;;;14.55;42.71;102574.19;5111504;28;20040;-82
2023/04/02 13:31:24;;;;;;;0.10;0.10;;;;;;;14.52;41.63;102579.53;5114864;28;20047;-84
2023/04/02 13:33:51;;;;;;;0.20;0.20;;;;;;;14.59;41.60;102569.69;5114585;28;20024;-81
2023/04/02 13:36:17;;;;;;;0.20;0.20;;;;;;;14.61;42.17;102573.22;5114442;28;20045;-79
2023/04/02 13:38:43;;;;;;;0.30;0.30;;;;;;;14.62;41.53;102579.47;5110056;28;20038;-82
2023/04/02 13:41:19;;;;;;;0.10;0.10;;;;;;;14.78;41.32;102585.53;5104526;28;20036;-81
2023/04/02 13:43:45;;;;;;;0.10;0.10;;;;;;;14.76;39.58;102587.38;5107944;28;20031;-82
2023/04/02 13:46:20;;;;;;;0.10;0.10;;;;;;;14.79;41.73;102582.88;5114396;28;20027;-83
2023/04/02 13:48:46;;;;;;;0.73;0.73;;;;;;;14.76;42.51;102582.03;5113748;28;20113;-82
2023/04/02 13:51:16;;;;;;;0.10;0.10;;;;;;;14.83;40.93;102573.94;5114636;28;20023;-82
2023/04/02 13:53:44;;;;;;;0.13;0.13;;;;;;;14.83;41.49;102571.28;5114254;28;20028;-82
2023/04/02 13:56:11;;;;;;;0.10;0.10;;;;;;;14.92;41.17;102580.09;5109981;28;20102;-81
2023/04/02 13:58:37;;;;;;;1.75;1.65;;;;;;;14.93;41.35;102581.84;5110742;28;20031;-81
2023/04/02 14:01:03;;;;;;;0.10;0.10;;;;;;;15.01;41.57;102582.66;5113076;28;20038;-82
2023/04/02 14:03:29;;;;;;;0.20;0.20;;;;;;;15.03;40.86;102586.19;5113890;28;20063;-82
2023/04/02 14:12:00;;;;;;;0.30;0.30;;;;;;;15.52;41.43;102588.28;5107090;27;1454441;-80
2023/04/02 14:17:46;;;;;;;0.10;0.10;;;;;;;15.67;37.97;102599.66;5118945;27;20372;-86
2023/04/02 14:26:14;;;;;;;0.10;0.10;;;;;;;16.06;40.30;102608.06;5106632;27;20371;-82
2023/04/02 14:29:06;;;;;;;0.10;0.10;;;;;;;16.15;39.98;102610.59;5089892;28;20054;-82
2023/04/02 14:31:45;;;;;;;0.10;0.10;;;;;;;16.06;39.89;102608.06;5105656;28;20489;-82
2023/04/02 14:42:23;;;;;;;0.10;0.10;;;;;;;16.15;39.63;102615.97;5071920;28;20406;-82
2023/04/02 14:45:12;;;;;;;0.22;0.22;;;;;;;16.23;39.38;102609.63;5073775;28;20029;-82
2023/04/02 14:47:46;;;;;;;18.42;0.95;;;;;;;16.25;38.68;102605.09;5065459;28;20403;-83
2023/04/02 14:50:28;;;;;;;0.20;0.20;;;;;;;16.39;38.46;102621.84;5053026;28;20448;-82
2023/04/02 14:53:00;;;;;;;0.10;0.10;;;;;;;16.34;38.16;102621.91;5053330;28;20021;-82
2023/04/02 14:55:36;;;;;;;0.10;0.10;;;;;;;16.45;37.29;102624.41;5053983;28;20376;-82
2023/04/02 14:58:08;;;;;;;0.10;0.10;;;;;;;16.42;37.71;102626.25;5050618;28;20025;-83
2023/04/02 15:00:50;;;;;;;0.10;0.10;;;;;;;16.48;36.26;102627.00;5053232;28;20029;-82
2023/04/02 15:05:57;;;;;;;0.10;0.10;;;;;;;16.67;38.50;102637.41;5080026;27;1893392;-82
2023/04/02 15:08:46;;;;;;;0.20;0.20;;;;;;;16.80;38.36;102628.28;5120356;28;20413;-82
2023/04/02 15:14:02;;;;;;;0.10;0.10;;;;;;;16.91;37.88;102629.88;5087293;27;20060;-87
2023/04/02 15:16:31;;;;;;;0.88;0.75;;;;;;;16.83;39.26;102638.03;5083510;28;20029;-84
2023/04/02 15:18:59;;;;;;;0.20;0.20;;;;;;;16.76;40.17;102642.63;5088364;28;20448;-84